CZ-0042 weather

Hospital Surgery Department Heliport
Havlíčkův Brod, Vysočina Region, Czechia

Public forecast

Using degrees Celsius for public forecast. Weather courtesy of forecast.io.

METAR (pilot weather report)

Closest report is Čáslav Air Base, 21.1 nm (39.0 km) NNW. Retrieved 2019/08/24 05:00 UTC (47 minutes ago):

LKCV 240500Z 24003KT 8000 NSC 15/15 Q1023 NOSIG RMK BLU BLU

TAF (pilot weather forecast)

Closest forecast is Čáslav Air Base, 21.1 nm (39.0 km) NNW. Retrieved 2019/08/24 00:00 UTC (6 hours ago):

TAF LKCV 232300Z 2400/2500 VRB02KT CAVOK TEMPO 2402/2406 2000 MIFG BR BKN004 BECMG 2410/2412 03007KT 9999 SCT035 BECMG 2414/2416 15009KT CAVOK PROB40 TEMPO 2412/2420 16015G25KT 5000 SHRA BKN035TCU